Etretat — FIDP — position and weather

sailwx.info

Track history (hours):
 
Tides and Currents Weather Stations Pressure Air Temp Water Temp Dewpoint Dewpoint Depression Visibility Wind Speed Wind Dir Waves Ship Positions

Etretat

Last reported at 2018-Apr-27 03:00 UTC. Time now 2018-Apr-27 03:03 UTC.
Position N 50°10' W 000°33'.

Length 187 m; draft 6 m.

Type: Ship. MMSI: 228022900.

Date/timePositionNaut miles runAvg speedWind from/ knotsBaromVisibWave heightAir tempDewpointWater temp
2018-Apr-27 03:00N 50°10' W 000°33'715.0
2018-Apr-27 02:30N 50°04' W 000°27'815.1
2018-Apr-27 02:00N 49°58' W 000°21'815.0
2018-Apr-27 01:30N 49°51' W 000°15'715.0
2018-Apr-27 01:00N 49°44' W 000°10'4 8.0
2018-Apr-27 00:30N 49°41' W 000°08'1 1.1
2018-Apr-27 00:00N 49°40' W 000°07'0 0.9
2018-Apr-26 23:30N 49°40' W 000°06'0 0.9
2018-Apr-26 23:00N 49°40' W 000°06'0 0.8
2018-Apr-26 22:30N 49°40' W 000°05'0 0.6
2018-Apr-26 22:00N 49°40' W 000°05'0 0.7
2018-Apr-26 21:30N 49°39' W 000°05'1 1.6
2018-Apr-26 21:00N 49°39' W 000°04'612.7
2018-Apr-26 20:30N 49°33' E 000°00'611.4
2018-Apr-26 20:00N 49°29' E 000°07'0 0.1
2018-Apr-26 19:30N 49°29' E 000°07'0 0.0
2018-Apr-26 19:00N 49°29' E 000°07'0 0.0
2018-Apr-26 18:30N 49°29' E 000°07'0 0.0
2018-Apr-26 18:00N 49°29' E 000°07'0 0.0
2018-Apr-26 17:30N 49°29' E 000°07'0 0.0
2018-Apr-26 17:00N 49°29' E 000°07'0 0.0
2018-Apr-26 16:30N 49°29' E 000°07'0 0.0
2018-Apr-26 16:00N 49°29' E 000°07'0 0.0
2018-Apr-26 15:30N 49°29' E 000°07'0 0.0
2018-Apr-26 15:00N 49°29' E 000°07'0 0.0
2018-Apr-26 14:30N 49°29' E 000°07'0 0.0
2018-Apr-26 14:00N 49°29' E 000°07'0 0.0
2018-Apr-26 13:30N 49°29' E 000°07'0 0.0
2018-Apr-26 13:00N 49°29' E 000°07'0 0.0
2018-Apr-26 12:30N 49°29' E 000°07'0 0.0
2018-Apr-26 12:00N 49°29' E 000°07'0 0.0
2018-Apr-26 11:30N 49°29' E 000°07'0 0.0
2018-Apr-26 11:00N 49°29' E 000°07'0 0.0
2018-Apr-26 10:30N 49°29' E 000°07'0 0.0
2018-Apr-26 10:00N 49°29' E 000°07'0 0.0
2018-Apr-26 09:30N 49°29' E 000°07'0 0.0
2018-Apr-26 09:00N 49°29' E 000°07'0 0.0
2018-Apr-26 08:30N 49°29' E 000°07'0 0.0
2018-Apr-26 08:00N 49°29' E 000°07'0 0.0
2018-Apr-26 07:30N 49°29' E 000°07'0 0.0
2018-Apr-26 07:00N 49°29' E 000°07'0 0.0
2018-Apr-26 06:30N 49°29' E 000°07'3 5.5
2018-Apr-26 06:00N 49°30' E 000°03'815.4
2018-Apr-26 05:31N 49°36' W 000°04'816.0
2018-Apr-26 05:01N 49°44' W 000°09'611.1
2018-Apr-26 04:30N 49°48' W 000°13'510.2
2018-Apr-26 04:00N 49°53' W 000°17'510.2
2018-Apr-26 03:30N 49°57' W 000°20'510.0
2018-Apr-26 03:00N 50°02' W 000°24'5 9.4
2018-Apr-26 02:30N 50°06' W 000°26'2613.2
2018-Apr-26 00:30N 50°29' W 000°47'714.0
2018-Apr-26 00:00N 50°35' W 000°52'714.1
2018-Apr-25 23:30N 50°41' W 000°58'713.2
2018-Apr-25 23:00N 50°46' W 001°05'3 5.9
2018-Apr-25 22:31N 50°49' W 001°06'0 0.0
2018-Apr-25 22:01N 50°49' W 001°06'0 0.0
2018-Apr-25 21:30N 50°49' W 001°06'0 0.0
2018-Apr-25 21:01N 50°49' W 001°06'0 0.0
2018-Apr-25 20:31N 50°49' W 001°06'2 3.8
2018-Apr-25 20:01N 50°47' W 001°06'917.3
2018-Apr-25 19:30N 50°40' W 000°57'1019.4
2018-Apr-25 19:00N 50°32' W 000°50'1720.1
2018-Apr-25 18:09N 50°17' W 000°37'319.8
2018-Apr-25 18:00N 50°14' W 000°34'1020.0
2018-Apr-25 17:30N 50°06' W 000°27'1020.0
2018-Apr-25 17:00N 49°57' W 000°19'1019.9
2018-Apr-25 16:30N 49°48' W 000°12'1020.1
2018-Apr-25 16:00N 49°39' W 000°05'1019.3
2018-Apr-25 15:30N 49°30' E 000°01'4 7.4
2018-Apr-25 15:01N 49°29' E 000°07'0 0.0
2018-Apr-25 14:31N 49°29' E 000°07'0 0.0
2018-Apr-25 14:00N 49°29' E 000°07'0 0.0
2018-Apr-25 13:30N 49°29' E 000°07'0 0.0
2018-Apr-25 13:01N 49°29' E 000°07'0 0.0
2018-Apr-25 12:31N 49°29' E 000°07'0 0.0
2018-Apr-25 12:01N 49°29' E 000°07'0 0.0
2018-Apr-25 11:30N 49°29' E 000°07'0 0.0
2018-Apr-25 11:01N 49°29' E 000°07'0 0.0
2018-Apr-25 10:30N 49°29' E 000°07'0 0.0
2018-Apr-25 10:01N 49°29' E 000°07'0 0.0
2018-Apr-25 09:30N 49°29' E 000°07'0 0.0
2018-Apr-25 09:00N 49°29' E 000°07'0 0.0
2018-Apr-25 08:30N 49°29' E 000°07'0 0.0
2018-Apr-25 08:00N 49°29' E 000°07'0 0.0
2018-Apr-25 07:31N 49°29' E 000°07'0 0.0
2018-Apr-25 07:01N 49°29' E 000°07'0 0.0
2018-Apr-25 06:31N 49°29' E 000°07'2 3.4
2018-Apr-25 06:00N 49°29' E 000°04'917.3
2018-Apr-25 05:30N 49°36' W 000°04'713.7
2018-Apr-25 05:00N 49°42' W 000°10'510.2
2018-Apr-25 04:30N 49°47' W 000°13'510.1
2018-Apr-25 04:01N 49°51' W 000°16'510.6
2018-Apr-25 03:30N 49°56' W 000°20'510.8
2018-Apr-25 03:00N 50°00' W 000°25'510.6
2018-Apr-25 02:31N 50°05' W 000°30'2713.0
2018-Apr-25 00:25N 50°30' W 000°47'614.0
2018-Apr-25 00:00N 50°34' W 000°52'714.0
2018-Apr-24 23:30N 50°41' W 000°57'713.6
2018-Apr-24 23:00N 50°45' W 001°05'4 7.5
2018-Apr-24 22:30N 50°49' W 001°06'0 0.0
2018-Apr-24 22:00N 50°49' W 001°06'0 0.0
2018-Apr-24 21:30N 50°49' W 001°06'0 0.0
2018-Apr-24 21:00N 50°49' W 001°06'0 0.2
2018-Apr-24 20:30N 50°49' W 001°06'4 7.5
2018-Apr-24 20:01N 50°45' W 001°05'714.0
2018-Apr-24 19:31N 50°40' W 000°57'1018.4
2018-Apr-24 18:58N 50°32' W 000°49'1419.3
2018-Apr-24 18:14N 50°19' W 000°39'819.5
2018-Apr-24 17:49N 50°12' W 000°33'620.1
2018-Apr-24 17:30N 50°06' W 000°29'1019.8
2018-Apr-24 17:01N 49°58' W 000°22'1019.8
2018-Apr-24 16:30N 49°49' W 000°15'1019.2
2018-Apr-24 16:00N 49°40' W 000°08'1019.6
2018-Apr-24 15:31N 49°32' E 000°00'510.4
2018-Apr-24 15:00N 49°29' E 000°07'0 0.0
2018-Apr-24 14:30N 49°29' E 000°07'0 0.0
2018-Apr-24 14:00N 49°29' E 000°07'0 0.0
2018-Apr-24 13:30N 49°29' E 000°07'0 0.0
2018-Apr-24 13:00N 49°29' E 000°07'0 0.0
2018-Apr-24 12:30N 49°29' E 000°07'0 0.0
2018-Apr-24 12:00N 49°29' E 000°07'0 0.0
2018-Apr-24 11:30N 49°29' E 000°07'0 0.0
2018-Apr-24 11:00N 49°29' E 000°07'0 0.0
2018-Apr-24 10:30N 49°29' E 000°07'0 0.0
2018-Apr-24 10:00N 49°29' E 000°07'0 0.0
2018-Apr-24 09:30N 49°29' E 000°07'0 0.0
2018-Apr-24 09:00N 49°29' E 000°07'0 0.0
2018-Apr-24 08:30N 49°29' E 000°07'0 0.0
2018-Apr-24 08:00N 49°29' E 000°07'0 0.0
2018-Apr-24 07:30N 49°29' E 000°07'0 0.0
2018-Apr-24 07:00N 49°29' E 000°07'0 0.0
2018-Apr-24 06:30N 49°29' E 000°07'2 3.5
2018-Apr-24 06:01N 49°29' E 000°04'815.3
2018-Apr-24 05:30N 49°36' W 000°03'713.0
2018-Apr-24 05:00N 49°42' W 000°07'510.2
2018-Apr-24 04:31N 49°46' W 000°10'611.0
2018-Apr-24 04:00N 49°50' W 000°16'611.1
2018-Apr-24 03:30N 49°56' W 000°19'511.2
2018-Apr-24 03:00N 50°01' W 000°22'612.2
2018-Apr-24 02:30N 50°06' W 000°26'714.6
2018-Apr-24 02:00N 50°13' W 000°31'1914.1
2018-Apr-24 00:39N 50°30' W 000°45'214.6
2018-Apr-24 00:31N 50°31' W 000°47'714.2
2018-Apr-24 00:01N 50°37' W 000°54'510.2
2018-Apr-23 23:31N 50°42' W 000°58'612.2
2018-Apr-23 23:00N 50°45' W 001°05'3 6.5
2018-Apr-23 22:30N 50°49' W 001°06'0 0.0
2018-Apr-23 22:00N 50°49' W 001°06'0 0.0
2018-Apr-23 21:30N 50°49' W 001°06'0 0.0
2018-Apr-23 21:00N 50°49' W 001°06'0 0.0
2018-Apr-23 20:30N 50°49' W 001°06'2 3.4
2018-Apr-23 20:00N 50°47' W 001°06'815.1
2018-Apr-23 19:30N 50°42' W 000°58'1019.8
2018-Apr-23 19:00N 50°33' W 000°51'1019.7
2018-Apr-23 18:30N 50°24' W 000°44'1019.8
2018-Apr-23 18:00N 50°15' W 000°38'1020.4
2018-Apr-23 17:30N 50°07' W 000°28'1020.2
2018-Apr-23 17:01N 49°58' W 000°20'1019.7
2018-Apr-23 16:30N 49°49' W 000°14'1019.1
2018-Apr-23 16:00N 49°41' W 000°07'1019.5
2018-Apr-23 15:31N 49°32' W 000°00'510.8
2018-Apr-23 15:00N 49°29' E 000°07'0 0.0
2018-Apr-23 14:30N 49°29' E 000°07'0 0.0
2018-Apr-23 14:00N 49°29' E 000°07'0 0.0
2018-Apr-23 13:30N 49°29' E 000°07'0 0.0
2018-Apr-23 13:00N 49°29' E 000°07'0 0.0
2018-Apr-23 12:30N 49°29' E 000°07'0 0.0
2018-Apr-23 12:00N 49°29' E 000°07'0 0.0
2018-Apr-23 11:30N 49°29' E 000°07'0 0.0
2018-Apr-23 11:00N 49°29' E 000°07'0 0.0
2018-Apr-23 10:30N 49°29' E 000°07'0 0.0
2018-Apr-23 10:00N 49°29' E 000°07'0 0.0
2018-Apr-23 09:30N 49°29' E 000°07'0 0.0
2018-Apr-23 09:00N 49°29' E 000°07'0 0.0
2018-Apr-23 08:30N 49°29' E 000°07'0 0.0
2018-Apr-23 08:00N 49°29' E 000°07'0 0.0
2018-Apr-23 07:30N 49°29' E 000°07'0 0.0
2018-Apr-23 07:00N 49°29' E 000°07'0 0.0
2018-Apr-23 06:30N 49°29' E 000°07'2 4.4
2018-Apr-23 06:01N 49°30' E 000°03'714.8
2018-Apr-23 05:31N 49°36' W 000°03'510.7
2018-Apr-23 05:01N 49°40' W 000°07'5 9.5
2018-Apr-23 04:31N 49°45' W 000°10'510.0
2018-Apr-23 04:01N 49°49' W 000°14'510.0
2018-Apr-23 03:31N 49°53' W 000°17'510.2
2018-Apr-23 03:00N 49°58' W 000°21'510.5
2018-Apr-23 02:30N 50°03' W 000°24'510.6
2018-Apr-23 02:01N 50°08' W 000°27'612.1
2018-Apr-23 01:30N 50°13' W 000°32'713.8
2018-Apr-23 01:00N 50°19' W 000°37'713.7
2018-Apr-23 00:31N 50°25' W 000°42'713.8
2018-Apr-23 00:00N 50°31' W 000°47'714.3
2018-Apr-22 23:30N 50°37' W 000°53'714.2
2018-Apr-22 23:00N 50°43' W 001°00'612.5
2018-Apr-22 22:30N 50°48' W 001°07'1 2.5
2018-Apr-22 22:00N 50°49' W 001°06'0 0.0
2018-Apr-22 21:30N 50°49' W 001°06'0 0.0
2018-Apr-22 21:00N 50°49' W 001°06'0 0.0
2018-Apr-22 20:30N 50°49' W 001°06'2 3.6
2018-Apr-22 20:00N 50°47' W 001°06'714.4
2018-Apr-22 19:30N 50°42' W 000°58'1019.2
2018-Apr-22 19:00N 50°33' W 000°52'1019.9
2018-Apr-22 18:30N 50°24' W 000°44'1019.3
2018-Apr-22 18:00N 50°16' W 000°38'1019.6
2018-Apr-22 17:30N 50°07' W 000°30'1019.9
2018-Apr-22 17:00N 49°58' W 000°23'1020.4
2018-Apr-22 16:30N 49°50' W 000°14'1020.3
2018-Apr-22 16:00N 49°41' W 000°06'1019.7
2018-Apr-22 15:30N 49°32' W 000°00'510.7
2018-Apr-22 15:01N 49°29' E 000°07'0 0.0
2018-Apr-22 14:31N 49°29' E 000°07'0 0.0
2018-Apr-22 14:01N 49°29' E 000°07'0 0.0
2018-Apr-22 13:31N 49°29' E 000°07'0 0.0
2018-Apr-22 13:01N 49°29' E 000°07'0 0.0
2018-Apr-22 12:31N 49°29' E 000°07'0 0.0
2018-Apr-22 12:01N 49°29' E 000°07'0 0.0
2018-Apr-22 11:31N 49°29' E 000°07'0 0.0
2018-Apr-22 11:01N 49°29' E 000°07'0 0.0
2018-Apr-22 10:31N 49°29' E 000°07'0 0.0
2018-Apr-22 10:01N 49°29' E 000°07'0 0.0
2018-Apr-22 09:31N 49°29' E 000°07'0 0.0
2018-Apr-22 09:01N 49°29' E 000°07'0 0.0
2018-Apr-22 08:31N 49°29' E 000°07'0 0.0
2018-Apr-22 08:01N 49°29' E 000°07'0 0.0
2018-Apr-22 07:31N 49°29' E 000°07'0 0.0
2018-Apr-22 07:01N 49°29' E 000°07'0 0.0
2018-Apr-22 06:31N 49°29' E 000°07'2 3.6
2018-Apr-22 06:00N 49°29' E 000°04'714.9
2018-Apr-22 05:30N 49°36' W 000°02'5 9.1
2018-Apr-22 05:00N 49°40' W 000°03'0 0.9
2018-Apr-22 04:30N 49°40' W 000°03'2 4.0
2018-Apr-22 04:00N 49°41' W 000°05'713.8
2018-Apr-22 03:30N 49°47' W 000°11'714.0
2018-Apr-22 03:00N 49°53' W 000°16'714.2
2018-Apr-22 02:30N 49°60' W 000°20'714.1
2018-Apr-22 02:00N 50°06' W 000°24'714.3
2018-Apr-22 01:30N 50°13' W 000°29'714.6
2018-Apr-22 00:59N 50°19' W 000°36'714.5
2018-Apr-22 00:30N 50°25' W 000°42'714.0
2018-Apr-22 00:00N 50°30' W 000°48'714.5
2018-Apr-21 23:30N 50°37' W 000°54'714.0
2018-Apr-21 23:00N 50°43' W 000°59'612.7
2018-Apr-21 22:30N 50°47' W 001°07'1 3.0
2018-Apr-21 22:01N 50°49' W 001°06'0 0.0
2018-Apr-21 21:31N 50°49' W 001°06'0 0.0
2018-Apr-21 21:01N 50°49' W 001°06'0 0.2
2018-Apr-21 20:31N 50°49' W 001°06'2 4.7
2018-Apr-21 20:00N 50°46' W 001°06'715.0
2018-Apr-21 19:30N 50°41' W 000°58'918.6
2018-Apr-21 19:00N 50°33' W 000°51'1019.3
2018-Apr-21 18:30N 50°24' W 000°43'1019.8
2018-Apr-21 18:00N 50°15' W 000°36'1020.1
2018-Apr-21 17:30N 50°06' W 000°29'1020.5
2018-Apr-21 17:00N 49°57' W 000°21'1020.6
2018-Apr-21 16:30N 49°48' W 000°14'1020.7
2018-Apr-21 16:00N 49°39' W 000°06'816.5
2018-Apr-21 15:30N 49°32' W 000°00'510.5
2018-Apr-21 15:00N 49°29' E 000°07'0 0.0
2018-Apr-21 14:30N 49°29' E 000°07'0 0.0
2018-Apr-21 14:00N 49°29' E 000°07'0 0.0
2018-Apr-21 13:30N 49°29' E 000°07'0 0.0
2018-Apr-21 13:00N 49°29' E 000°07'0 0.0
2018-Apr-21 12:30N 49°29' E 000°07'0 0.0
2018-Apr-21 12:00N 49°29' E 000°07'0 0.0
2018-Apr-21 11:30N 49°29' E 000°07'0 0.0
2018-Apr-21 11:00N 49°29' E 000°07'0 0.0
2018-Apr-21 10:30N 49°29' E 000°07'0 0.0
2018-Apr-21 10:00N 49°29' E 000°07'0 0.0
2018-Apr-21 09:30N 49°29' E 000°07'0 0.0
2018-Apr-21 09:00N 49°29' E 000°07'0 0.0
2018-Apr-21 08:30N 49°29' E 000°07'0 0.0
2018-Apr-21 08:00N 49°29' E 000°07'0 0.0
2018-Apr-21 07:30N 49°29' E 000°07'0 0.0
2018-Apr-21 07:00N 49°29' E 000°07'0 0.0
2018-Apr-21 06:30N 49°29' E 000°07'2 3.1
2018-Apr-21 06:00N 49°29' E 000°04'815.2
2018-Apr-21 05:30N 49°36' W 000°02'4 7.5
2018-Apr-21 05:00N 49°39' W 000°03'0 0.6
2018-Apr-21 04:31N 49°40' W 000°02'510.5
2018-Apr-21 04:01N 49°43' W 000°08'713.8
2018-Apr-21 03:30N 49°50' W 000°13'713.9
2018-Apr-21 03:01N 49°55' W 000°19'714.1
2018-Apr-21 02:31N 50°02' W 000°23'714.2
2018-Apr-21 02:01N 50°08' W 000°28'714.3
2018-Apr-21 01:30N 50°15' W 000°32'714.3
2018-Apr-21 01:01N 50°21' W 000°37'714.4
2018-Apr-21 00:31N 50°28' W 000°43'714.8
2018-Apr-21 00:00N 50°34' W 000°50'714.9
2018-Apr-20 23:31N 50°40' W 000°56'714.0
2018-Apr-20 23:00N 50°44' W 001°04'4 8.6
2018-Apr-20 22:30N 50°49' W 001°06'0 0.2
2018-Apr-20 22:01N 50°49' W 001°06'0 0.0
2018-Apr-20 21:31N 50°49' W 001°06'0 0.0
2018-Apr-20 21:01N 50°49' W 001°06'0 0.0
2018-Apr-20 20:31N 50°49' W 001°06'0 0.0
2018-Apr-20 20:01N 50°49' W 001°06'0 0.0
2018-Apr-20 19:31N 50°49' W 001°06'0 0.0
2018-Apr-20 19:01N 50°49' W 001°06'0 0.0
2018-Apr-20 18:30N 50°49' W 001°06'0 0.0
2018-Apr-20 18:01N 50°49' W 001°06'0 0.0
2018-Apr-20 17:30N 50°49' W 001°06'0 0.4
2018-Apr-20 17:01N 50°49' W 001°06'4 8.4
2018-Apr-20 16:30N 50°45' W 001°04'611.8
2018-Apr-20 16:01N 50°39' W 001°03'1 2.5
2018-Apr-20 15:30N 50°38' W 001°05'0 0.0
2018-Apr-20 15:00N 50°38' W 001°05'0 0.1
2018-Apr-20 14:30N 50°38' W 001°05'0 0.2
2018-Apr-20 14:00N 50°38' W 001°04'0 0.0
2018-Apr-20 13:30N 50°38' W 001°04'0 0.0
2018-Apr-20 13:00N 50°38' W 001°04'0 0.0
2018-Apr-20 12:30N 50°38' W 001°04'0 0.0
2018-Apr-20 12:00N 50°38' W 001°04'0 0.0
2018-Apr-20 11:30N 50°38' W 001°04'0 0.0
2018-Apr-20 11:00N 50°38' W 001°04'0 0.0
2018-Apr-20 10:30N 50°38' W 001°04'0 0.0
2018-Apr-20 10:00N 50°38' W 001°04'3 5.7
2018-Apr-20 09:30N 50°40' W 001°01'5 9.6
2018-Apr-20 09:01N 50°44' W 001°04'5 9.7
2018-Apr-20 08:31N 50°49' W 001°06'0 0.6
2018-Apr-20 08:00N 50°49' W 001°06'0 0.0
2018-Apr-20 07:30N 50°49' W 001°06'0 0.0
2018-Apr-20 07:00N 50°49' W 001°06'0 0.0
2018-Apr-20 06:30N 50°49' W 001°06'0 0.0
2018-Apr-20 06:00N 50°49' W 001°06'0 0.0
2018-Apr-20 05:30N 50°49' W 001°06'0 0.0
2018-Apr-20 05:00N 50°49' W 001°06'0 0.0
2018-Apr-20 04:30N 50°49' W 001°06'0 0.0
2018-Apr-20 04:00N 50°49' W 001°06'0 0.0
2018-Apr-20 03:30N 50°49' W 001°06'0 0.0
2018-Apr-20 03:00N 50°49' W 001°06'0 0.0
2018-Apr-20 02:30N 50°49' W 001°06'0 0.0
2018-Apr-20 02:00N 50°49' W 001°06'0 0.0
2018-Apr-20 01:30N 50°49' W 001°06'0 0.0
2018-Apr-20 01:00N 50°49' W 001°06'0 0.0
2018-Apr-20 00:30N 50°49' W 001°06'0 0.0
2018-Apr-20 00:00N 50°49' W 001°06'0 0.0
2018-Apr-19 23:30N 50°49' W 001°06'0 0.0
2018-Apr-19 23:00N 50°49' W 001°06'0 0.0
2018-Apr-19 22:30N 50°49' W 001°06'0 0.0
2018-Apr-19 22:00N 50°49' W 001°06'0 0.0
2018-Apr-19 21:30N 50°49' W 001°06'0 0.0
2018-Apr-19 21:00N 50°49' W 001°06'0 0.0
2018-Apr-19 20:30N 50°49' W 001°06'0 0.0
2018-Apr-19 20:00N 50°49' W 001°06'0 0.0
2018-Apr-19 19:30N 50°49' W 001°06'0 0.0
2018-Apr-19 19:00N 50°49' W 001°06'0 0.0
2018-Apr-19 18:30N 50°49' W 001°06'0 0.0
2018-Apr-19 18:00N 50°49' W 001°06'0 0.0
2018-Apr-19 17:30N 50°49' W 001°06'0 0.0
2018-Apr-19 17:00N 50°49' W 001°06'0 0.0
2018-Apr-19 16:30N 50°49' W 001°06'0 0.0
2018-Apr-19 16:00N 50°49' W 001°06'0 0.0
2018-Apr-19 15:30N 50°49' W 001°06'0 0.0
2018-Apr-19 15:00N 50°49' W 001°06'0 0.0
2018-Apr-19 14:30N 50°49' W 001°06'0 0.0
2018-Apr-19 14:00N 50°49' W 001°06'0 0.0
2018-Apr-19 13:30N 50°49' W 001°06'0 0.0
2018-Apr-19 13:00N 50°49' W 001°06'0 0.0
2018-Apr-19 12:30N 50°49' W 001°06'0 0.0
2018-Apr-19 12:00N 50°49' W 001°06'0 0.0
2018-Apr-19 11:30N 50°49' W 001°06'0 0.0
2018-Apr-19 11:00N 50°49' W 001°06'0 0.0
2018-Apr-19 10:30N 50°49' W 001°06'0 0.0
2018-Apr-19 10:00N 50°49' W 001°06'0 0.0
2018-Apr-19 09:30N 50°49' W 001°06'0 0.0
2018-Apr-19 09:00N 50°49' W 001°06'0 0.0
2018-Apr-19 08:30N 50°49' W 001°06'0 0.0
2018-Apr-19 08:00N 50°49' W 001°06'0 0.0
2018-Apr-19 07:30N 50°49' W 001°06'0 0.0
2018-Apr-19 07:00N 50°49' W 001°06'0 0.0
2018-Apr-19 06:30N 50°49' W 001°06'0 0.0
2018-Apr-19 06:00N 50°49' W 001°06'0 0.0
2018-Apr-19 05:30N 50°49' W 001°06'0 0.0
2018-Apr-19 05:00N 50°49' W 001°06'0 0.0
2018-Apr-19 04:30N 50°49' W 001°06'0 0.0
2018-Apr-19 04:00N 50°49' W 001°06'0 0.0
2018-Apr-19 03:30N 50°49' W 001°06'0 0.0
2018-Apr-19 03:00N 50°49' W 001°06'0 0.0
2018-Apr-19 02:30N 50°49' W 001°06'0 0.0
2018-Apr-19 02:00N 50°49' W 001°06'0 0.0
2018-Apr-19 01:30N 50°49' W 001°06'0 0.0
2018-Apr-19 01:00N 50°49' W 001°06'0 0.0
2018-Apr-19 00:30N 50°49' W 001°06'0 0.0
2018-Apr-19 00:00N 50°49' W 001°06'0 0.0
2018-Apr-18 23:30N 50°49' W 001°06'0 0.0
2018-Apr-18 23:00N 50°49' W 001°06'0 0.0
2018-Apr-18 22:30N 50°49' W 001°06'0 0.0
2018-Apr-18 22:00N 50°49' W 001°06'0 0.0
2018-Apr-18 21:30N 50°49' W 001°06'0 0.0
2018-Apr-18 21:00N 50°49' W 001°06'0 0.1
2018-Apr-18 20:30N 50°49' W 001°06'2 3.9
2018-Apr-18 20:00N 50°47' W 001°06'815.4
2018-Apr-18 19:30N 50°41' W 000°57'1019.3
2018-Apr-18 19:00N 50°32' W 000°52'1019.3
2018-Apr-18 18:30N 50°23' W 000°47'1019.5
2018-Apr-18 18:00N 50°14' W 000°41'1020.1
2018-Apr-18 17:30N 50°05' W 000°33'1020.3
2018-Apr-18 17:00N 49°57' W 000°25'1019.9
2018-Apr-18 16:30N 49°49' W 000°16'1020.1
2018-Apr-18 16:00N 49°40' W 000°08'1019.7
2018-Apr-18 15:30N 49°32' W 000°00'510.4
2018-Apr-18 15:00N 49°29' E 000°07'0 0.0
2018-Apr-18 14:30N 49°29' E 000°07'0 0.0
2018-Apr-18 14:00N 49°29' E 000°07'0 0.0
2018-Apr-18 13:30N 49°29' E 000°07'0 0.0
2018-Apr-18 13:00N 49°29' E 000°07'0 0.0
2018-Apr-18 12:30N 49°29' E 000°07'0 0.0
2018-Apr-18 12:00N 49°29' E 000°07'0 0.0
2018-Apr-18 11:30N 49°29' E 000°07'0 0.0
2018-Apr-18 11:00N 49°29' E 000°07'0 0.0
2018-Apr-18 10:30N 49°29' E 000°07'0 0.0
2018-Apr-18 10:00N 49°29' E 000°07'0 0.0
2018-Apr-18 09:30N 49°29' E 000°07'0 0.0
2018-Apr-18 09:00N 49°29' E 000°07'0 0.0
2018-Apr-18 08:30N 49°29' E 000°07'0 0.0
2018-Apr-18 08:00N 49°29' E 000°07'0 0.0
2018-Apr-18 07:30N 49°29' E 000°07'0 0.0
2018-Apr-18 07:00N 49°29' E 000°07'0 0.0
2018-Apr-18 06:30N 49°29' E 000°07'2 3.6
2018-Apr-18 06:00N 49°29' E 000°04'714.9
2018-Apr-18 05:30N 49°35' W 000°03'4 7.9
2018-Apr-18 05:00N 49°39' W 000°05'1 1.1
2018-Apr-18 04:30N 49°39' W 000°05'1 1.8
2018-Apr-18 04:00N 49°39' W 000°03'713.9
2018-Apr-18 03:30N 49°45' W 000°11'815.1
2018-Apr-18 03:00N 49°51' W 000°17'714.7
2018-Apr-18 02:30N 49°57' W 000°23'714.8
2018-Apr-18 02:00N 50°04' W 000°29'714.9
2018-Apr-18 01:30N 50°10' W 000°35'815.7
2018-Apr-18 00:58N 50°17' W 000°42'816.0
2018-Apr-18 00:30N 50°24' W 000°46'816.9
2018-Apr-18 00:00N 50°32' W 000°49'816.6
2018-Apr-17 23:30N 50°39' W 000°56'713.6
2018-Apr-17 23:00N 50°44' W 001°04'5 9.8
2018-Apr-17 22:30N 50°49' W 001°06'0 0.8
2018-Apr-17 22:00N 50°49' W 001°06'0 0.0
2018-Apr-17 21:30N 50°49' W 001°06'0 0.0
2018-Apr-17 21:00N 50°49' W 001°06'0 0.0
2018-Apr-17 20:31N 50°49' W 001°06'2 3.3
2018-Apr-17 20:00N 50°47' W 001°06'815.4
2018-Apr-17 19:31N 50°42' W 000°58'1019.6
2018-Apr-17 19:00N 50°33' W 000°51'1019.7
2018-Apr-17 18:29N 50°24' W 000°43'1220.0
2018-Apr-17 17:53N 50°13' W 000°35'820.1
2018-Apr-17 17:30N 50°06' W 000°30'1020.3
2018-Apr-17 17:00N 49°57' W 000°22'1020.7
2018-Apr-17 16:31N 49°48' W 000°14'1020.8
2018-Apr-17 16:01N 49°39' W 000°06'1020.7
2018-Apr-17 15:30N 49°30' E 000°01'4 7.2
2018-Apr-17 15:00N 49°29' E 000°07'0 0.0
2018-Apr-17 14:30N 49°29' E 000°07'0 0.0
2018-Apr-17 14:00N 49°29' E 000°07'0 0.0
2018-Apr-17 13:30N 49°29' E 000°07'0 0.0
2018-Apr-17 13:00N 49°29' E 000°07'0 0.0
2018-Apr-17 12:30N 49°29' E 000°07'0 0.0
2018-Apr-17 12:00N 49°29' E 000°07'0 0.0
2018-Apr-17 11:30N 49°29' E 000°07'0 0.0
2018-Apr-17 11:00N 49°29' E 000°07'0 0.0
2018-Apr-17 10:30N 49°29' E 000°07'0 0.0
2018-Apr-17 10:00N 49°29' E 000°07'0 0.0
2018-Apr-17 09:30N 49°29' E 000°07'0 0.0
2018-Apr-17 09:00N 49°29' E 000°07'0 0.0
2018-Apr-17 08:30N 49°29' E 000°07'0 0.0
2018-Apr-17 08:00N 49°29' E 000°07'0 0.0
2018-Apr-17 07:30N 49°29' E 000°07'0 0.0
2018-Apr-17 07:00N 49°29' E 000°07'0 0.0
2018-Apr-17 06:30N 49°29' E 000°07'2 3.3
2018-Apr-17 06:00N 49°29' E 000°04'917.5
2018-Apr-17 05:31N 49°36' W 000°04'2 4.7
2018-Apr-17 05:00N 49°38' W 000°05'1 1.9
2018-Apr-17 04:30N 49°38' W 000°04'510.5
2018-Apr-17 04:00N 49°43' W 000°08'815.7
2018-Apr-17 03:30N 49°49' W 000°14'715.0
2018-Apr-17 03:00N 49°55' W 000°22'  
Track history (hours):
 
Tides and Currents Weather Stations Pressure Air Temp Water Temp Dewpoint Dewpoint Depression Visibility Wind Speed Wind Dir Waves Ship Positions

Etretat

Last reported at 2018-Apr-27 03:00 UTC. Time now 2018-Apr-27 03:03 UTC.
Position N 50°10' W 000°33'.

Length 187 m; draft 6 m.

Type: Ship. MMSI: 228022900.

Date/timePositionNaut miles runAvg speedWind from/ knotsBaromVisibWave heightAir tempDewpointWater temp
2018-Apr-27 03:00N 50°10' W 000°33'715.0
2018-Apr-27 02:30N 50°04' W 000°27'815.1
2018-Apr-27 02:00N 49°58' W 000°21'815.0
2018-Apr-27 01:30N 49°51' W 000°15'715.0
2018-Apr-27 01:00N 49°44' W 000°10'4 8.0
2018-Apr-27 00:30N 49°41' W 000°08'1 1.1
2018-Apr-27 00:00N 49°40' W 000°07'0 0.9
2018-Apr-26 23:30N 49°40' W 000°06'0 0.9
2018-Apr-26 23:00N 49°40' W 000°06'0 0.8
2018-Apr-26 22:30N 49°40' W 000°05'0 0.6
2018-Apr-26 22:00N 49°40' W 000°05'0 0.7
2018-Apr-26 21:30N 49°39' W 000°05'1 1.6
2018-Apr-26 21:00N 49°39' W 000°04'612.7
2018-Apr-26 20:30N 49°33' E 000°00'611.4
2018-Apr-26 20:00N 49°29' E 000°07'0 0.1
2018-Apr-26 19:30N 49°29' E 000°07'0 0.0
2018-Apr-26 19:00N 49°29' E 000°07'0 0.0
2018-Apr-26 18:30N 49°29' E 000°07'0 0.0
2018-Apr-26 18:00N 49°29' E 000°07'0 0.0
2018-Apr-26 17:30N 49°29' E 000°07'0 0.0
2018-Apr-26 17:00N 49°29' E 000°07'0 0.0
2018-Apr-26 16:30N 49°29' E 000°07'0 0.0
2018-Apr-26 16:00N 49°29' E 000°07'0 0.0
2018-Apr-26 15:30N 49°29' E 000°07'0 0.0
2018-Apr-26 15:00N 49°29' E 000°07'0 0.0
2018-Apr-26 14:30N 49°29' E 000°07'0 0.0
2018-Apr-26 14:00N 49°29' E 000°07'0 0.0
2018-Apr-26 13:30N 49°29' E 000°07'0 0.0
2018-Apr-26 13:00N 49°29' E 000°07'0 0.0
2018-Apr-26 12:30N 49°29' E 000°07'0 0.0
2018-Apr-26 12:00N 49°29' E 000°07'0 0.0
2018-Apr-26 11:30N 49°29' E 000°07'0 0.0
2018-Apr-26 11:00N 49°29' E 000°07'0 0.0
2018-Apr-26 10:30N 49°29' E 000°07'0 0.0
2018-Apr-26 10:00N 49°29' E 000°07'0 0.0
2018-Apr-26 09:30N 49°29' E 000°07'0 0.0
2018-Apr-26 09:00N 49°29' E 000°07'0 0.0
2018-Apr-26 08:30N 49°29' E 000°07'0 0.0
2018-Apr-26 08:00N 49°29' E 000°07'0 0.0
2018-Apr-26 07:30N 49°29' E 000°07'0 0.0
2018-Apr-26 07:00N 49°29' E 000°07'0 0.0
2018-Apr-26 06:30N 49°29' E 000°07'3 5.5
2018-Apr-26 06:00N 49°30' E 000°03'815.4
2018-Apr-26 05:31N 49°36' W 000°04'816.0
2018-Apr-26 05:01N 49°44' W 000°09'611.1
2018-Apr-26 04:30N 49°48' W 000°13'510.2
2018-Apr-26 04:00N 49°53' W 000°17'510.2
2018-Apr-26 03:30N 49°57' W 000°20'510.0
2018-Apr-26 03:00N 50°02' W 000°24'5 9.4
2018-Apr-26 02:30N 50°06' W 000°26'2613.2
2018-Apr-26 00:30N 50°29' W 000°47'714.0
2018-Apr-26 00:00N 50°35' W 000°52'714.1
2018-Apr-25 23:30N 50°41' W 000°58'713.2
2018-Apr-25 23:00N 50°46' W 001°05'3 5.9
2018-Apr-25 22:31N 50°49' W 001°06'0 0.0
2018-Apr-25 22:01N 50°49' W 001°06'0 0.0
2018-Apr-25 21:30N 50°49' W 001°06'0 0.0
2018-Apr-25 21:01N 50°49' W 001°06'0 0.0
2018-Apr-25 20:31N 50°49' W 001°06'2 3.8
2018-Apr-25 20:01N 50°47' W 001°06'917.3
2018-Apr-25 19:30N 50°40' W 000°57'1019.4
2018-Apr-25 19:00N 50°32' W 000°50'1720.1
2018-Apr-25 18:09N 50°17' W 000°37'319.8
2018-Apr-25 18:00N 50°14' W 000°34'1020.0
2018-Apr-25 17:30N 50°06' W 000°27'1020.0
2018-Apr-25 17:00N 49°57' W 000°19'1019.9
2018-Apr-25 16:30N 49°48' W 000°12'1020.1
2018-Apr-25 16:00N 49°39' W 000°05'1019.3
2018-Apr-25 15:30N 49°30' E 000°01'4 7.4
2018-Apr-25 15:01N 49°29' E 000°07'0 0.0
2018-Apr-25 14:31N 49°29' E 000°07'0 0.0
2018-Apr-25 14:00N 49°29' E 000°07'0 0.0
2018-Apr-25 13:30N 49°29' E 000°07'0 0.0
2018-Apr-25 13:01N 49°29' E 000°07'0 0.0
2018-Apr-25 12:31N 49°29' E 000°07'0 0.0
2018-Apr-25 12:01N 49°29' E 000°07'0 0.0
2018-Apr-25 11:30N 49°29' E 000°07'0 0.0
2018-Apr-25 11:01N 49°29' E 000°07'0 0.0
2018-Apr-25 10:30N 49°29' E 000°07'0 0.0
2018-Apr-25 10:01N 49°29' E 000°07'0 0.0
2018-Apr-25 09:30N 49°29' E 000°07'0 0.0
2018-Apr-25 09:00N 49°29' E 000°07'0 0.0
2018-Apr-25 08:30N 49°29' E 000°07'0 0.0
2018-Apr-25 08:00N 49°29' E 000°07'0 0.0
2018-Apr-25 07:31N 49°29' E 000°07'0 0.0
2018-Apr-25 07:01N 49°29' E 000°07'0 0.0
2018-Apr-25 06:31N 49°29' E 000°07'2 3.4
2018-Apr-25 06:00N 49°29' E 000°04'917.3
2018-Apr-25 05:30N 49°36' W 000°04'713.7
2018-Apr-25 05:00N 49°42' W 000°10'510.2
2018-Apr-25 04:30N 49°47' W 000°13'510.1
2018-Apr-25 04:01N 49°51' W 000°16'510.6
2018-Apr-25 03:30N 49°56' W 000°20'510.8
2018-Apr-25 03:00N 50°00' W 000°25'510.6
2018-Apr-25 02:31N 50°05' W 000°30'2713.0
2018-Apr-25 00:25N 50°30' W 000°47'614.0
2018-Apr-25 00:00N 50°34' W 000°52'714.0
2018-Apr-24 23:30N 50°41' W 000°57'713.6
2018-Apr-24 23:00N 50°45' W 001°05'4 7.5
2018-Apr-24 22:30N 50°49' W 001°06'0 0.0
2018-Apr-24 22:00N 50°49' W 001°06'0 0.0
2018-Apr-24 21:30N 50°49' W 001°06'0 0.0
2018-Apr-24 21:00N 50°49' W 001°06'0 0.2
2018-Apr-24 20:30N 50°49' W 001°06'4 7.5
2018-Apr-24 20:01N 50°45' W 001°05'714.0
2018-Apr-24 19:31N 50°40' W 000°57'1018.4
2018-Apr-24 18:58N 50°32' W 000°49'1419.3
2018-Apr-24 18:14N 50°19' W 000°39'819.5
2018-Apr-24 17:49N 50°12' W 000°33'620.1
2018-Apr-24 17:30N 50°06' W 000°29'1019.8
2018-Apr-24 17:01N 49°58' W 000°22'1019.8
2018-Apr-24 16:30N 49°49' W 000°15'1019.2
2018-Apr-24 16:00N 49°40' W 000°08'1019.6
2018-Apr-24 15:31N 49°32' E 000°00'510.4
2018-Apr-24 15:00N 49°29' E 000°07'0 0.0
2018-Apr-24 14:30N 49°29' E 000°07'0 0.0
2018-Apr-24 14:00N 49°29' E 000°07'0 0.0
2018-Apr-24 13:30N 49°29' E 000°07'0 0.0
2018-Apr-24 13:00N 49°29' E 000°07'0 0.0
2018-Apr-24 12:30N 49°29' E 000°07'0 0.0
2018-Apr-24 12:00N 49°29' E 000°07'0 0.0
2018-Apr-24 11:30N 49°29' E 000°07'0 0.0
2018-Apr-24 11:00N 49°29' E 000°07'0 0.0
2018-Apr-24 10:30N 49°29' E 000°07'0 0.0
2018-Apr-24 10:00N 49°29' E 000°07'0 0.0
2018-Apr-24 09:30N 49°29' E 000°07'0 0.0
2018-Apr-24 09:00N 49°29' E 000°07'0 0.0
2018-Apr-24 08:30N 49°29' E 000°07'0 0.0
2018-Apr-24 08:00N 49°29' E 000°07'0 0.0
2018-Apr-24 07:30N 49°29' E 000°07'0 0.0
2018-Apr-24 07:00N 49°29' E 000°07'0 0.0
2018-Apr-24 06:30N 49°29' E 000°07'2 3.5
2018-Apr-24 06:01N 49°29' E 000°04'815.3
2018-Apr-24 05:30N 49°36' W 000°03'713.0
2018-Apr-24 05:00N 49°42' W 000°07'510.2
2018-Apr-24 04:31N 49°46' W 000°10'611.0
2018-Apr-24 04:00N 49°50' W 000°16'611.1
2018-Apr-24 03:30N 49°56' W 000°19'511.2
2018-Apr-24 03:00N 50°01' W 000°22'612.2
2018-Apr-24 02:30N 50°06' W 000°26'714.6
2018-Apr-24 02:00N 50°13' W 000°31'1914.1
2018-Apr-24 00:39N 50°30' W 000°45'214.6
2018-Apr-24 00:31N 50°31' W 000°47'714.2
2018-Apr-24 00:01N 50°37' W 000°54'510.2
2018-Apr-23 23:31N 50°42' W 000°58'612.2
2018-Apr-23 23:00N 50°45' W 001°05'3 6.5
2018-Apr-23 22:30N 50°49' W 001°06'0 0.0
2018-Apr-23 22:00N 50°49' W 001°06'0 0.0
2018-Apr-23 21:30N 50°49' W 001°06'0 0.0
2018-Apr-23 21:00N 50°49' W 001°06'0 0.0
2018-Apr-23 20:30N 50°49' W 001°06'2 3.4
2018-Apr-23 20:00N 50°47' W 001°06'815.1
2018-Apr-23 19:30N 50°42' W 000°58'1019.8
2018-Apr-23 19:00N 50°33' W 000°51'1019.7
2018-Apr-23 18:30N 50°24' W 000°44'1019.8
2018-Apr-23 18:00N 50°15' W 000°38'1020.4
2018-Apr-23 17:30N 50°07' W 000°28'1020.2
2018-Apr-23 17:01N 49°58' W 000°20'1019.7
2018-Apr-23 16:30N 49°49' W 000°14'1019.1
2018-Apr-23 16:00N 49°41' W 000°07'1019.5
2018-Apr-23 15:31N 49°32' W 000°00'510.8
2018-Apr-23 15:00N 49°29' E 000°07'0 0.0
2018-Apr-23 14:30N 49°29' E 000°07'0 0.0
2018-Apr-23 14:00N 49°29' E 000°07'0 0.0
2018-Apr-23 13:30N 49°29' E 000°07'0 0.0
2018-Apr-23 13:00N 49°29' E 000°07'0 0.0
2018-Apr-23 12:30N 49°29' E 000°07'0 0.0
2018-Apr-23 12:00N 49°29' E 000°07'0 0.0
2018-Apr-23 11:30N 49°29' E 000°07'0 0.0
2018-Apr-23 11:00N 49°29' E 000°07'0 0.0
2018-Apr-23 10:30N 49°29' E 000°07'0 0.0
2018-Apr-23 10:00N 49°29' E 000°07'0 0.0
2018-Apr-23 09:30N 49°29' E 000°07'0 0.0
2018-Apr-23 09:00N 49°29' E 000°07'0 0.0
2018-Apr-23 08:30N 49°29' E 000°07'0 0.0
2018-Apr-23 08:00N 49°29' E 000°07'0 0.0
2018-Apr-23 07:30N 49°29' E 000°07'0 0.0
2018-Apr-23 07:00N 49°29' E 000°07'0 0.0
2018-Apr-23 06:30N 49°29' E 000°07'2 4.4
2018-Apr-23 06:01N 49°30' E 000°03'714.8
2018-Apr-23 05:31N 49°36' W 000°03'510.7
2018-Apr-23 05:01N 49°40' W 000°07'5 9.5
2018-Apr-23 04:31N 49°45' W 000°10'510.0
2018-Apr-23 04:01N 49°49' W 000°14'510.0
2018-Apr-23 03:31N 49°53' W 000°17'510.2
2018-Apr-23 03:00N 49°58' W 000°21'510.5
2018-Apr-23 02:30N 50°03' W 000°24'510.6
2018-Apr-23 02:01N 50°08' W 000°27'612.1
2018-Apr-23 01:30N 50°13' W 000°32'713.8
2018-Apr-23 01:00N 50°19' W 000°37'713.7
2018-Apr-23 00:31N 50°25' W 000°42'713.8
2018-Apr-23 00:00N 50°31' W 000°47'714.3
2018-Apr-22 23:30N 50°37' W 000°53'714.2
2018-Apr-22 23:00N 50°43' W 001°00'612.5
2018-Apr-22 22:30N 50°48' W 001°07'1 2.5
2018-Apr-22 22:00N 50°49' W 001°06'0 0.0
2018-Apr-22 21:30N 50°49' W 001°06'0 0.0
2018-Apr-22 21:00N 50°49' W 001°06'0 0.0
2018-Apr-22 20:30N 50°49' W 001°06'2 3.6
2018-Apr-22 20:00N 50°47' W 001°06'714.4
2018-Apr-22 19:30N 50°42' W 000°58'1019.2
2018-Apr-22 19:00N 50°33' W 000°52'1019.9
2018-Apr-22 18:30N 50°24' W 000°44'1019.3
2018-Apr-22 18:00N 50°16' W 000°38'1019.6
2018-Apr-22 17:30N 50°07' W 000°30'1019.9
2018-Apr-22 17:00N 49°58' W 000°23'1020.4
2018-Apr-22 16:30N 49°50' W 000°14'1020.3
2018-Apr-22 16:00N 49°41' W 000°06'1019.7
2018-Apr-22 15:30N 49°32' W 000°00'510.7
2018-Apr-22 15:01N 49°29' E 000°07'0 0.0
2018-Apr-22 14:31N 49°29' E 000°07'0 0.0
2018-Apr-22 14:01N 49°29' E 000°07'0 0.0
2018-Apr-22 13:31N 49°29' E 000°07'0 0.0
2018-Apr-22 13:01N 49°29' E 000°07'0 0.0
2018-Apr-22 12:31N 49°29' E 000°07'0 0.0
2018-Apr-22 12:01N 49°29' E 000°07'0 0.0
2018-Apr-22 11:31N 49°29' E 000°07'0 0.0
2018-Apr-22 11:01N 49°29' E 000°07'0 0.0
2018-Apr-22 10:31N 49°29' E 000°07'0 0.0
2018-Apr-22 10:01N 49°29' E 000°07'0 0.0
2018-Apr-22 09:31N 49°29' E 000°07'0 0.0
2018-Apr-22 09:01N 49°29' E 000°07'0 0.0
2018-Apr-22 08:31N 49°29' E 000°07'0 0.0
2018-Apr-22 08:01N 49°29' E 000°07'0 0.0
2018-Apr-22 07:31N 49°29' E 000°07'0 0.0
2018-Apr-22 07:01N 49°29' E 000°07'0 0.0
2018-Apr-22 06:31N 49°29' E 000°07'2 3.6
2018-Apr-22 06:00N 49°29' E 000°04'714.9
2018-Apr-22 05:30N 49°36' W 000°02'5 9.1
2018-Apr-22 05:00N 49°40' W 000°03'0 0.9
2018-Apr-22 04:30N 49°40' W 000°03'2 4.0
2018-Apr-22 04:00N 49°41' W 000°05'713.8
2018-Apr-22 03:30N 49°47' W 000°11'714.0
2018-Apr-22 03:00N 49°53' W 000°16'714.2
2018-Apr-22 02:30N 49°60' W 000°20'714.1
2018-Apr-22 02:00N 50°06' W 000°24'714.3
2018-Apr-22 01:30N 50°13' W 000°29'714.6
2018-Apr-22 00:59N 50°19' W 000°36'714.5
2018-Apr-22 00:30N 50°25' W 000°42'714.0
2018-Apr-22 00:00N 50°30' W 000°48'714.5
2018-Apr-21 23:30N 50°37' W 000°54'714.0
2018-Apr-21 23:00N 50°43' W 000°59'612.7
2018-Apr-21 22:30N 50°47' W 001°07'1 3.0
2018-Apr-21 22:01N 50°49' W 001°06'0 0.0
2018-Apr-21 21:31N 50°49' W 001°06'0 0.0
2018-Apr-21 21:01N 50°49' W 001°06'0 0.2
2018-Apr-21 20:31N 50°49' W 001°06'2 4.7
2018-Apr-21 20:00N 50°46' W 001°06'715.0
2018-Apr-21 19:30N 50°41' W 000°58'918.6
2018-Apr-21 19:00N 50°33' W 000°51'1019.3
2018-Apr-21 18:30N 50°24' W 000°43'1019.8
2018-Apr-21 18:00N 50°15' W 000°36'1020.1
2018-Apr-21 17:30N 50°06' W 000°29'1020.5
2018-Apr-21 17:00N 49°57' W 000°21'1020.6
2018-Apr-21 16:30N 49°48' W 000°14'1020.7
2018-Apr-21 16:00N 49°39' W 000°06'816.5
2018-Apr-21 15:30N 49°32' W 000°00'510.5
2018-Apr-21 15:00N 49°29' E 000°07'0 0.0
2018-Apr-21 14:30N 49°29' E 000°07'0 0.0
2018-Apr-21 14:00N 49°29' E 000°07'0 0.0
2018-Apr-21 13:30N 49°29' E 000°07'0 0.0
2018-Apr-21 13:00N 49°29' E 000°07'0 0.0
2018-Apr-21 12:30N 49°29' E 000°07'0 0.0
2018-Apr-21 12:00N 49°29' E 000°07'0 0.0
2018-Apr-21 11:30N 49°29' E 000°07'0 0.0
2018-Apr-21 11:00N 49°29' E 000°07'0 0.0
2018-Apr-21 10:30N 49°29' E 000°07'0 0.0
2018-Apr-21 10:00N 49°29' E 000°07'0 0.0
2018-Apr-21 09:30N 49°29' E 000°07'0 0.0
2018-Apr-21 09:00N 49°29' E 000°07'0 0.0
2018-Apr-21 08:30N 49°29' E 000°07'0 0.0
2018-Apr-21 08:00N 49°29' E 000°07'0 0.0
2018-Apr-21 07:30N 49°29' E 000°07'0 0.0
2018-Apr-21 07:00N 49°29' E 000°07'0 0.0
2018-Apr-21 06:30N 49°29' E 000°07'2 3.1
2018-Apr-21 06:00N 49°29' E 000°04'815.2
2018-Apr-21 05:30N 49°36' W 000°02'4 7.5
2018-Apr-21 05:00N 49°39' W 000°03'0 0.6
2018-Apr-21 04:31N 49°40' W 000°02'510.5
2018-Apr-21 04:01N 49°43' W 000°08'713.8
2018-Apr-21 03:30N 49°50' W 000°13'713.9
2018-Apr-21 03:01N 49°55' W 000°19'714.1
2018-Apr-21 02:31N 50°02' W 000°23'714.2
2018-Apr-21 02:01N 50°08' W 000°28'714.3
2018-Apr-21 01:30N 50°15' W 000°32'714.3
2018-Apr-21 01:01N 50°21' W 000°37'714.4
2018-Apr-21 00:31N 50°28' W 000°43'714.8
2018-Apr-21 00:00N 50°34' W 000°50'714.9
2018-Apr-20 23:31N 50°40' W 000°56'714.0
2018-Apr-20 23:00N 50°44' W 001°04'4 8.6
2018-Apr-20 22:30N 50°49' W 001°06'0 0.2
2018-Apr-20 22:01N 50°49' W 001°06'0 0.0
2018-Apr-20 21:31N 50°49' W 001°06'0 0.0
2018-Apr-20 21:01N 50°49' W 001°06'0 0.0
2018-Apr-20 20:31N 50°49' W 001°06'0 0.0
2018-Apr-20 20:01N 50°49' W 001°06'0 0.0
2018-Apr-20 19:31N 50°49' W 001°06'0 0.0
2018-Apr-20 19:01N 50°49' W 001°06'0 0.0
2018-Apr-20 18:30N 50°49' W 001°06'0 0.0
2018-Apr-20 18:01N 50°49' W 001°06'0 0.0
2018-Apr-20 17:30N 50°49' W 001°06'0 0.4
2018-Apr-20 17:01N 50°49' W 001°06'4 8.4
2018-Apr-20 16:30N 50°45' W 001°04'611.8
2018-Apr-20 16:01N 50°39' W 001°03'1 2.5
2018-Apr-20 15:30N 50°38' W 001°05'0 0.0
2018-Apr-20 15:00N 50°38' W 001°05'0 0.1
2018-Apr-20 14:30N 50°38' W 001°05'0 0.2
2018-Apr-20 14:00N 50°38' W 001°04'0 0.0
2018-Apr-20 13:30N 50°38' W 001°04'0 0.0
2018-Apr-20 13:00N 50°38' W 001°04'0 0.0
2018-Apr-20 12:30N 50°38' W 001°04'0 0.0
2018-Apr-20 12:00N 50°38' W 001°04'0 0.0
2018-Apr-20 11:30N 50°38' W 001°04'0 0.0
2018-Apr-20 11:00N 50°38' W 001°04'0 0.0
2018-Apr-20 10:30N 50°38' W 001°04'0 0.0
2018-Apr-20 10:00N 50°38' W 001°04'3 5.7
2018-Apr-20 09:30N 50°40' W 001°01'5 9.6
2018-Apr-20 09:01N 50°44' W 001°04'5 9.7
2018-Apr-20 08:31N 50°49' W 001°06'0 0.6
2018-Apr-20 08:00N 50°49' W 001°06'0 0.0
2018-Apr-20 07:30N 50°49' W 001°06'0 0.0
2018-Apr-20 07:00N 50°49' W 001°06'0 0.0
2018-Apr-20 06:30N 50°49' W 001°06'0 0.0
2018-Apr-20 06:00N 50°49' W 001°06'0 0.0
2018-Apr-20 05:30N 50°49' W 001°06'0 0.0
2018-Apr-20 05:00N 50°49' W 001°06'0 0.0
2018-Apr-20 04:30N 50°49' W 001°06'0 0.0
2018-Apr-20 04:00N 50°49' W 001°06'0 0.0
2018-Apr-20 03:30N 50°49' W 001°06'0 0.0
2018-Apr-20 03:00N 50°49' W 001°06'0 0.0
2018-Apr-20 02:30N 50°49' W 001°06'0 0.0
2018-Apr-20 02:00N 50°49' W 001°06'0 0.0
2018-Apr-20 01:30N 50°49' W 001°06'0 0.0
2018-Apr-20 01:00N 50°49' W 001°06'0 0.0
2018-Apr-20 00:30N 50°49' W 001°06'0 0.0
2018-Apr-20 00:00N 50°49' W 001°06'0 0.0
2018-Apr-19 23:30N 50°49' W 001°06'0 0.0
2018-Apr-19 23:00N 50°49' W 001°06'0 0.0
2018-Apr-19 22:30N 50°49' W 001°06'0 0.0
2018-Apr-19 22:00N 50°49' W 001°06'0 0.0
2018-Apr-19 21:30N 50°49' W 001°06'0 0.0
2018-Apr-19 21:00N 50°49' W 001°06'0 0.0
2018-Apr-19 20:30N 50°49' W 001°06'0 0.0
2018-Apr-19 20:00N 50°49' W 001°06'0 0.0
2018-Apr-19 19:30N 50°49' W 001°06'0 0.0
2018-Apr-19 19:00N 50°49' W 001°06'0 0.0
2018-Apr-19 18:30N 50°49' W 001°06'0 0.0
2018-Apr-19 18:00N 50°49' W 001°06'0 0.0
2018-Apr-19 17:30N 50°49' W 001°06'0 0.0
2018-Apr-19 17:00N 50°49' W 001°06'0 0.0
2018-Apr-19 16:30N 50°49' W 001°06'0 0.0
2018-Apr-19 16:00N 50°49' W 001°06'0 0.0
2018-Apr-19 15:30N 50°49' W 001°06'0 0.0
2018-Apr-19 15:00N 50°49' W 001°06'0 0.0
2018-Apr-19 14:30N 50°49' W 001°06'0 0.0
2018-Apr-19 14:00N 50°49' W 001°06'0 0.0
2018-Apr-19 13:30N 50°49' W 001°06'0 0.0
2018-Apr-19 13:00N 50°49' W 001°06'0 0.0
2018-Apr-19 12:30N 50°49' W 001°06'0 0.0
2018-Apr-19 12:00N 50°49' W 001°06'0 0.0
2018-Apr-19 11:30N 50°49' W 001°06'0 0.0
2018-Apr-19 11:00N 50°49' W 001°06'0 0.0
2018-Apr-19 10:30N 50°49' W 001°06'0 0.0
2018-Apr-19 10:00N 50°49' W 001°06'0 0.0
2018-Apr-19 09:30N 50°49' W 001°06'0 0.0
2018-Apr-19 09:00N 50°49' W 001°06'0 0.0
2018-Apr-19 08:30N 50°49' W 001°06'0 0.0
2018-Apr-19 08:00N 50°49' W 001°06'0 0.0
2018-Apr-19 07:30N 50°49' W 001°06'0 0.0
2018-Apr-19 07:00N 50°49' W 001°06'0 0.0
2018-Apr-19 06:30N 50°49' W 001°06'0 0.0
2018-Apr-19 06:00N 50°49' W 001°06'0 0.0
2018-Apr-19 05:30N 50°49' W 001°06'0 0.0
2018-Apr-19 05:00N 50°49' W 001°06'0 0.0
2018-Apr-19 04:30N 50°49' W 001°06'0 0.0
2018-Apr-19 04:00N 50°49' W 001°06'0 0.0
2018-Apr-19 03:30N 50°49' W 001°06'0 0.0
2018-Apr-19 03:00N 50°49' W 001°06'0 0.0
2018-Apr-19 02:30N 50°49' W 001°06'0 0.0
2018-Apr-19 02:00N 50°49' W 001°06'0 0.0
2018-Apr-19 01:30N 50°49' W 001°06'0 0.0
2018-Apr-19 01:00N 50°49' W 001°06'0 0.0
2018-Apr-19 00:30N 50°49' W 001°06'0 0.0
2018-Apr-19 00:00N 50°49' W 001°06'0 0.0
2018-Apr-18 23:30N 50°49' W 001°06'0 0.0
2018-Apr-18 23:00N 50°49' W 001°06'0 0.0
2018-Apr-18 22:30N 50°49' W 001°06'0 0.0
2018-Apr-18 22:00N 50°49' W 001°06'0 0.0
2018-Apr-18 21:30N 50°49' W 001°06'0 0.0
2018-Apr-18 21:00N 50°49' W 001°06'0 0.1
2018-Apr-18 20:30N 50°49' W 001°06'2 3.9
2018-Apr-18 20:00N 50°47' W 001°06'815.4
2018-Apr-18 19:30N 50°41' W 000°57'1019.3
2018-Apr-18 19:00N 50°32' W 000°52'1019.3
2018-Apr-18 18:30N 50°23' W 000°47'1019.5
2018-Apr-18 18:00N 50°14' W 000°41'1020.1
2018-Apr-18 17:30N 50°05' W 000°33'1020.3
2018-Apr-18 17:00N 49°57' W 000°25'1019.9
2018-Apr-18 16:30N 49°49' W 000°16'1020.1
2018-Apr-18 16:00N 49°40' W 000°08'1019.7
2018-Apr-18 15:30N 49°32' W 000°00'510.4
2018-Apr-18 15:00N 49°29' E 000°07'0 0.0
2018-Apr-18 14:30N 49°29' E 000°07'0 0.0
2018-Apr-18 14:00N 49°29' E 000°07'0 0.0
2018-Apr-18 13:30N 49°29' E 000°07'0 0.0
2018-Apr-18 13:00N 49°29' E 000°07'0 0.0
2018-Apr-18 12:30N 49°29' E 000°07'0 0.0
2018-Apr-18 12:00N 49°29' E 000°07'0 0.0
2018-Apr-18 11:30N 49°29' E 000°07'0 0.0
2018-Apr-18 11:00N 49°29' E 000°07'0 0.0
2018-Apr-18 10:30N 49°29' E 000°07'0 0.0
2018-Apr-18 10:00N 49°29' E 000°07'0 0.0
2018-Apr-18 09:30N 49°29' E 000°07'0 0.0
2018-Apr-18 09:00N 49°29' E 000°07'0 0.0
2018-Apr-18 08:30N 49°29' E 000°07'0 0.0
2018-Apr-18 08:00N 49°29' E 000°07'0 0.0
2018-Apr-18 07:30N 49°29' E 000°07'0 0.0
2018-Apr-18 07:00N 49°29' E 000°07'0 0.0
2018-Apr-18 06:30N 49°29' E 000°07'2 3.6
2018-Apr-18 06:00N 49°29' E 000°04'714.9
2018-Apr-18 05:30N 49°35' W 000°03'4 7.9
2018-Apr-18 05:00N 49°39' W 000°05'1 1.1
2018-Apr-18 04:30N 49°39' W 000°05'1 1.8
2018-Apr-18 04:00N 49°39' W 000°03'713.9
2018-Apr-18 03:30N 49°45' W 000°11'815.1
2018-Apr-18 03:00N 49°51' W 000°17'714.7
2018-Apr-18 02:30N 49°57' W 000°23'714.8
2018-Apr-18 02:00N 50°04' W 000°29'714.9
2018-Apr-18 01:30N 50°10' W 000°35'815.7
2018-Apr-18 00:58N 50°17' W 000°42'816.0
2018-Apr-18 00:30N 50°24' W 000°46'816.9
2018-Apr-18 00:00N 50°32' W 000°49'816.6
2018-Apr-17 23:30N 50°39' W 000°56'713.6
2018-Apr-17 23:00N 50°44' W 001°04'5 9.8
2018-Apr-17 22:30N 50°49' W 001°06'0 0.8
2018-Apr-17 22:00N 50°49' W 001°06'0 0.0
2018-Apr-17 21:30N 50°49' W 001°06'0 0.0
2018-Apr-17 21:00N 50°49' W 001°06'0 0.0
2018-Apr-17 20:31N 50°49' W 001°06'2 3.3
2018-Apr-17 20:00N 50°47' W 001°06'815.4
2018-Apr-17 19:31N 50°42' W 000°58'1019.6
2018-Apr-17 19:00N 50°33' W 000°51'1019.7
2018-Apr-17 18:29N 50°24' W 000°43'1220.0
2018-Apr-17 17:53N 50°13' W 000°35'820.1
2018-Apr-17 17:30N 50°06' W 000°30'1020.3
2018-Apr-17 17:00N 49°57' W 000°22'1020.7
2018-Apr-17 16:31N 49°48' W 000°14'1020.8
2018-Apr-17 16:01N 49°39' W 000°06'1020.7
2018-Apr-17 15:30N 49°30' E 000°01'4 7.2
2018-Apr-17 15:00N 49°29' E 000°07'0 0.0
2018-Apr-17 14:30N 49°29' E 000°07'0 0.0
2018-Apr-17 14:00N 49°29' E 000°07'0 0.0
2018-Apr-17 13:30N 49°29' E 000°07'0 0.0
2018-Apr-17 13:00N 49°29' E 000°07'0 0.0
2018-Apr-17 12:30N 49°29' E 000°07'0 0.0
2018-Apr-17 12:00N 49°29' E 000°07'0 0.0
2018-Apr-17 11:30N 49°29' E 000°07'0 0.0
2018-Apr-17 11:00N 49°29' E 000°07'0 0.0
2018-Apr-17 10:30N 49°29' E 000°07'0 0.0
2018-Apr-17 10:00N 49°29' E 000°07'0 0.0
2018-Apr-17 09:30N 49°29' E 000°07'0 0.0
2018-Apr-17 09:00N 49°29' E 000°07'0 0.0
2018-Apr-17 08:30N 49°29' E 000°07'0 0.0
2018-Apr-17 08:00N 49°29' E 000°07'0 0.0
2018-Apr-17 07:30N 49°29' E 000°07'0 0.0
2018-Apr-17 07:00N 49°29' E 000°07'0 0.0
2018-Apr-17 06:30N 49°29' E 000°07'2 3.3
2018-Apr-17 06:00N 49°29' E 000°04'917.5
2018-Apr-17 05:31N 49°36' W 000°04'2 4.7
2018-Apr-17 05:00N 49°38' W 000°05'1 1.9
2018-Apr-17 04:30N 49°38' W 000°04'510.5
2018-Apr-17 04:00N 49°43' W 000°08'815.7
2018-Apr-17 03:30N 49°49' W 000°14'715.0
2018-Apr-17 03:00N 49°55' W 000°22'  

Dump ship's entire track history